createdAt,value
2022-11-27T00:00:39.841Z,1.20
2022-11-27T00:03:09.416Z,1.30
2022-11-27T00:05:39.082Z,1.50
2022-11-27T00:08:08.537Z,1.40
2022-11-27T00:10:38.029Z,1.50
2022-11-27T00:13:07.512Z,1.50
2022-11-27T00:15:36.721Z,1.60
2022-11-27T00:18:06.138Z,1.40
2022-11-27T00:20:36.330Z,1.30
2022-11-27T00:23:06.156Z,1.60
2022-11-27T00:25:35.490Z,1.20
2022-11-27T00:28:04.880Z,1.30
2022-11-27T00:30:34.488Z,1.30
2022-11-27T00:33:04.054Z,1.40
2022-11-27T00:35:33.607Z,1.60
2022-11-27T00:38:03.331Z,1.20
2022-11-27T00:40:32.699Z,1.20
2022-11-27T00:43:02.724Z,1.40
2022-11-27T00:45:32.497Z,1.70
2022-11-27T00:48:02.040Z,1.40
2022-11-27T00:50:33.064Z,1.20
2022-11-27T00:53:02.238Z,1.70
2022-11-27T00:55:31.458Z,1.80
2022-11-27T00:58:00.843Z,1.00
2022-11-27T01:00:30.261Z,3.00
2022-11-27T01:03:00.093Z,2.20
2022-11-27T01:05:29.442Z,1.40
2022-11-27T01:07:58.676Z,2.10
2022-11-27T01:10:27.811Z,1.60
2022-11-27T01:12:57.375Z,1.30
2022-11-27T01:15:26.865Z,1.60
2022-11-27T01:17:56.236Z,1.40
2022-11-27T01:20:25.695Z,1.60
2022-11-27T01:22:54.765Z,1.30
2022-11-27T01:25:26.880Z,1.30
2022-11-27T01:27:56.465Z,1.60
2022-11-27T01:30:25.703Z,1.50
2022-11-27T01:32:57.962Z,1.50
2022-11-27T01:35:27.417Z,2.00
2022-11-27T01:37:56.775Z,1.80
2022-11-27T01:40:27.229Z,1.80
2022-11-27T01:42:56.448Z,1.60
2022-11-27T01:45:26.189Z,1.70
2022-11-27T01:48:03.000Z,1.90
2022-11-27T01:50:40.181Z,2.20
2022-11-27T01:53:21.152Z,1.70
2022-11-27T01:55:57.817Z,1.90
2022-11-27T01:58:31.804Z,1.90
2022-11-27T02:01:01.904Z,1.60
2022-11-27T02:03:31.530Z,1.90
2022-11-27T02:06:01.186Z,1.70
2022-11-27T02:08:30.746Z,3.20
2022-11-27T02:11:19.843Z,2.00
2022-11-27T02:14:41.298Z,1.30
2022-11-27T02:17:51.598Z,1.70
2022-11-27T02:20:46.439Z,1.80
2022-11-27T02:23:57.888Z,1.70
2022-11-27T02:27:07.480Z,1.60
2022-11-27T02:29:40.133Z,1.50
2022-11-27T02:32:32.911Z,1.80
2022-11-27T02:35:30.638Z,1.90
2022-11-27T02:38:12.615Z,1.80
2022-11-27T02:40:50.081Z,1.50
2022-11-27T02:43:30.277Z,1.50
2022-11-27T02:46:02.718Z,1.40
2022-11-27T02:48:49.956Z,1.70
2022-11-27T02:51:41.722Z,1.50
2022-11-27T02:54:19.331Z,1.70
2022-11-27T02:56:52.494Z,1.60
2022-11-27T02:59:28.787Z,1.80
2022-11-27T03:02:05.964Z,1.40
2022-11-27T03:04:50.675Z,1.70
2022-11-27T03:07:31.983Z,1.60
2022-11-27T03:10:11.470Z,1.50
2022-11-27T03:12:41.228Z,1.40
2022-11-27T03:15:11.346Z,1.60
2022-11-27T03:17:53.790Z,1.30
2022-11-27T03:20:42.634Z,1.60
2022-11-27T03:23:12.195Z,2.00
2022-11-27T03:25:41.313Z,1.50
2022-11-27T03:28:14.453Z,1.60
2022-11-27T03:30:44.459Z,1.70
2022-11-27T03:33:14.056Z,1.60
2022-11-27T03:35:43.325Z,1.60
2022-11-27T03:38:12.523Z,1.50
2022-11-27T03:41:04.537Z,1.70
2022-11-27T03:43:53.925Z,1.50
2022-11-27T03:46:59.298Z,1.50
2022-11-27T03:49:51.513Z,1.70
2022-11-27T03:52:36.672Z,1.60
2022-11-27T03:55:44.177Z,2.10
2022-11-27T03:59:03.733Z,1.70
2022-11-27T04:01:33.779Z,1.80
2022-11-27T04:04:03.016Z,1.50
2022-11-27T04:06:32.698Z,1.20
2022-11-27T04:09:02.457Z,1.50
2022-11-27T04:11:32.412Z,1.30
2022-11-27T04:14:01.718Z,1.30
2022-11-27T04:16:30.781Z,1.50
2022-11-27T04:18:59.992Z,1.90
2022-11-27T04:21:29.125Z,1.30
2022-11-27T04:23:58.097Z,1.20
2022-11-27T04:26:27.198Z,1.50
2022-11-27T04:28:56.620Z,1.40
2022-11-27T04:31:25.978Z,1.60
2022-11-27T04:33:55.401Z,1.30
2022-11-27T04:36:24.679Z,1.50
2022-11-27T04:38:54.068Z,1.30
2022-11-27T04:41:23.379Z,1.30
2022-11-27T04:43:52.804Z,1.20
2022-11-27T04:46:22.798Z,1.20
2022-11-27T04:48:52.039Z,1.40
2022-11-27T04:51:21.614Z,1.40
2022-11-27T04:53:50.930Z,1.30
2022-11-27T04:56:20.350Z,1.30
2022-11-27T04:58:50.402Z,1.30
2022-11-27T05:01:20.007Z,1.50
2022-11-27T05:03:50.510Z,1.50
2022-11-27T05:06:19.883Z,1.70
2022-11-27T05:08:49.132Z,1.20
2022-11-27T05:11:19.795Z,1.40
2022-11-27T05:13:49.385Z,1.60
2022-11-27T05:16:18.719Z,1.30
2022-11-27T05:18:48.200Z,1.20
2022-11-27T05:21:17.801Z,1.40
2022-11-27T05:23:47.007Z,1.30
2022-11-27T05:26:16.227Z,1.30
2022-11-27T05:28:45.565Z,1.40
2022-11-27T05:31:14.902Z,1.60
2022-11-27T05:33:44.507Z,1.20
2022-11-27T05:36:14.070Z,1.30
2022-11-27T05:38:43.364Z,1.50
2022-11-27T05:41:12.476Z,1.30
2022-11-27T05:43:42.926Z,1.40
2022-11-27T05:46:16.480Z,0.90
2022-11-27T05:48:45.788Z,1.30
2022-11-27T05:51:15.850Z,1.10
2022-11-27T05:53:45.052Z,1.50
2022-11-27T05:56:20.215Z,1.30
2022-11-27T05:58:52.377Z,1.30
2022-11-27T06:01:23.203Z,1.20
2022-11-27T06:03:52.640Z,1.30
2022-11-27T06:06:23.250Z,1.30
2022-11-27T06:08:52.586Z,1.20
2022-11-27T06:11:24.780Z,1.30
2022-11-27T06:13:53.949Z,1.30
2022-11-27T06:16:25.695Z,1.20
2022-11-27T06:18:57.325Z,1.20
2022-11-27T06:21:26.815Z,1.20
2022-11-27T06:23:57.794Z,1.20
2022-11-27T06:26:33.035Z,1.30
2022-11-27T06:29:03.458Z,1.10
2022-11-27T06:31:35.045Z,1.20
2022-11-27T06:34:05.197Z,1.20
2022-11-27T06:36:38.300Z,1.00
2022-11-27T06:39:09.311Z,0.90
2022-11-27T06:41:38.852Z,1.00
2022-11-27T06:44:08.146Z,1.40
2022-11-27T06:46:37.756Z,1.10
2022-11-27T06:49:07.396Z,1.10
2022-11-27T06:51:36.984Z,1.20
2022-11-27T06:54:06.731Z,1.00
2022-11-27T06:56:35.769Z,1.20
2022-11-27T06:59:05.372Z,1.20
2022-11-27T07:01:35.449Z,1.20
2022-11-27T07:04:04.651Z,1.20
2022-11-27T07:06:34.216Z,1.10
2022-11-27T07:09:03.731Z,1.10
2022-11-27T07:11:33.695Z,1.30
2022-11-27T07:14:06.766Z,1.10
2022-11-27T07:16:38.511Z,1.00
2022-11-27T07:19:10.112Z,1.30
2022-11-27T07:21:40.238Z,1.20
2022-11-27T07:24:09.938Z,1.20
2022-11-27T07:26:39.137Z,0.90
2022-11-27T07:29:08.554Z,1.00
2022-11-27T07:31:37.853Z,1.00
2022-11-27T07:34:14.121Z,1.10
2022-11-27T07:36:48.303Z,1.10
2022-11-27T07:39:33.745Z,1.30
2022-11-27T07:42:36.836Z,1.10
2022-11-27T07:44:58.159Z,1.30
2022-11-27T07:47:27.380Z,0.90
2022-11-27T07:49:59.320Z,1.20
2022-11-27T07:52:29.404Z,0.90
2022-11-27T07:54:58.787Z,1.20
2022-11-27T07:57:29.958Z,1.00
2022-11-27T08:05:21.068Z,1.00
2022-11-27T08:07:50.485Z,1.10
2022-11-27T08:10:19.887Z,1.10
2022-11-27T08:12:49.340Z,1.30
2022-11-27T08:15:18.651Z,1.20
2022-11-27T08:17:49.307Z,1.20
2022-11-27T08:20:21.792Z,1.00
2022-11-27T08:22:51.609Z,1.00
2022-11-27T08:25:20.977Z,1.40
2022-11-27T08:27:50.354Z,1.30
2022-11-27T08:30:20.351Z,1.00
2022-11-27T08:32:49.509Z,1.10
2022-11-27T08:35:18.806Z,1.10
2022-11-27T08:37:48.604Z,1.10
2022-11-27T08:40:17.959Z,1.10
2022-11-27T08:42:47.054Z,1.10
2022-11-27T08:45:16.455Z,1.20
2022-11-27T08:47:45.621Z,1.10
2022-11-27T08:50:14.794Z,1.30
2022-11-27T08:52:43.943Z,1.20
2022-11-27T08:55:13.833Z,1.20
2022-11-27T08:57:43.454Z,0.90
2022-11-27T09:00:14.198Z,1.30
2022-11-27T09:02:43.586Z,1.30
2022-11-27T09:05:12.892Z,1.10
2022-11-27T09:07:42.610Z,1.10
2022-11-27T09:10:12.758Z,1.00
2022-11-27T09:12:52.543Z,1.00
2022-11-27T09:15:24.108Z,1.20
2022-11-27T09:17:53.432Z,1.10
2022-11-27T09:20:23.178Z,1.10
2022-11-27T09:22:52.486Z,1.10
2022-11-27T09:25:21.945Z,1.00
2022-11-27T09:27:51.698Z,1.00
2022-11-27T09:30:21.360Z,1.10
2022-11-27T09:32:50.834Z,0.70
2022-11-27T09:35:20.041Z,1.00
2022-11-27T09:37:49.656Z,1.00
2022-11-27T09:40:19.819Z,1.30
2022-11-27T09:43:11.056Z,1.10
2022-11-27T09:45:58.543Z,0.90
2022-11-27T09:48:41.347Z,0.90
2022-11-27T09:51:35.305Z,0.90
2022-11-27T09:54:20.797Z,1.10
2022-11-27T09:56:55.008Z,1.20
2022-11-27T09:59:37.736Z,1.00
2022-11-27T10:02:20.306Z,1.20
2022-11-27T10:05:13.000Z,1.10
2022-11-27T10:08:10.734Z,1.20
2022-11-27T10:10:58.152Z,1.40
2022-11-27T10:14:02.226Z,1.20
2022-11-27T10:17:01.278Z,1.00
2022-11-27T10:19:51.233Z,1.10
2022-11-27T10:22:36.957Z,1.00
2022-11-27T10:25:35.855Z,1.00
2022-11-27T10:28:41.706Z,1.10
2022-11-27T10:31:20.262Z,0.90
2022-11-27T10:34:06.756Z,0.90
2022-11-27T10:36:46.265Z,1.00
2022-11-27T10:39:32.294Z,0.70
2022-11-27T10:42:15.035Z,0.90
2022-11-27T10:44:56.612Z,0.80
2022-11-27T10:47:33.449Z,1.00
2022-11-27T10:50:03.422Z,0.90
2022-11-27T10:52:33.025Z,1.00
2022-11-27T10:55:15.108Z,0.90
2022-11-27T10:58:18.100Z,0.90
2022-11-27T11:00:48.754Z,1.10
2022-11-27T11:03:21.288Z,1.30
2022-11-27T11:06:24.010Z,1.30
2022-11-27T11:09:31.359Z,1.00
2022-11-27T11:12:17.640Z,0.80
2022-11-27T11:15:02.871Z,0.80
2022-11-27T11:17:35.844Z,1.10
2022-11-27T11:20:24.856Z,1.00
2022-11-27T11:22:53.922Z,1.20
2022-11-27T11:25:24.446Z,1.10
2022-11-27T11:27:54.678Z,1.40
2022-11-27T11:30:31.416Z,1.10
2022-11-27T11:33:05.939Z,0.90
2022-11-27T11:35:38.665Z,1.10
2022-11-27T11:38:20.249Z,1.00
2022-11-27T11:41:04.361Z,0.70
2022-11-27T11:43:37.535Z,1.10
2022-11-27T11:46:25.009Z,1.10
2022-11-27T11:49:07.913Z,0.90
2022-11-27T11:52:27.352Z,1.10
2022-11-27T11:55:37.954Z,1.20
2022-11-27T11:58:29.261Z,1.00
2022-11-27T12:01:31.718Z,1.00
2022-11-27T12:04:30.062Z,1.10
2022-11-27T12:07:17.606Z,1.00
2022-11-27T12:10:32.897Z,0.90
2022-11-27T12:13:29.040Z,1.10
2022-11-27T12:16:40.831Z,0.90
2022-11-27T12:19:42.742Z,1.00
2022-11-27T12:22:53.532Z,0.80
2022-11-27T12:25:40.972Z,0.80
2022-11-27T12:28:44.435Z,0.90
2022-11-27T12:32:03.997Z,1.20
2022-11-27T12:35:05.519Z,1.10
2022-11-27T12:38:09.771Z,0.90
2022-11-27T12:40:56.804Z,1.00
2022-11-27T12:43:29.087Z,1.00
2022-11-27T12:46:22.896Z,1.10
2022-11-27T12:49:29.595Z,0.80
2022-11-27T12:52:36.121Z,0.90
2022-11-27T12:55:22.941Z,0.70
2022-11-27T12:58:08.489Z,1.00
2022-11-27T13:00:44.681Z,1.30
2022-11-27T13:04:00.742Z,0.90
2022-11-27T13:06:37.571Z,0.90
2022-11-27T13:09:24.163Z,0.80
2022-11-27T13:11:53.782Z,1.10
2022-11-27T13:14:28.342Z,0.80
2022-11-27T13:17:06.220Z,1.00
2022-11-27T13:20:04.022Z,0.80
2022-11-27T13:22:37.576Z,0.80
2022-11-27T13:25:07.565Z,0.90
2022-11-27T13:27:39.493Z,0.90
2022-11-27T13:30:18.647Z,1.00
2022-11-27T13:33:07.517Z,0.90
2022-11-27T13:35:43.094Z,0.90
2022-11-27T13:38:29.011Z,1.10
2022-11-27T13:41:00.112Z,1.10
2022-11-27T13:43:56.875Z,0.90
2022-11-27T13:46:49.591Z,1.10
2022-11-27T13:49:34.357Z,0.90
2022-11-27T13:52:13.290Z,0.90
2022-11-27T13:54:59.034Z,1.00
2022-11-27T13:57:31.516Z,0.80
2022-11-27T14:00:10.271Z,0.90
2022-11-27T14:02:48.862Z,0.80
2022-11-27T14:05:37.281Z,1.00
2022-11-27T14:08:20.695Z,0.80
2022-11-27T14:11:06.062Z,0.90
2022-11-27T14:13:46.601Z,0.70
2022-11-27T14:16:36.023Z,0.80
2022-11-27T14:19:33.485Z,0.90
2022-11-27T14:22:14.876Z,1.20
2022-11-27T14:24:47.405Z,1.10
2022-11-27T14:27:27.074Z,0.80
2022-11-27T14:29:56.237Z,0.80
2022-11-27T14:32:36.601Z,1.10
2022-11-27T14:35:06.362Z,1.30
2022-11-27T14:37:38.269Z,0.90
2022-11-27T14:40:17.489Z,1.00
2022-11-27T14:42:46.746Z,0.80
2022-11-27T14:45:20.695Z,1.10
2022-11-27T14:47:56.794Z,1.30
2022-11-27T14:50:26.261Z,1.10
2022-11-27T14:52:59.851Z,0.90
2022-11-27T14:55:34.428Z,1.10
2022-11-27T14:58:04.544Z,1.00
2022-11-27T15:00:33.791Z,1.10
2022-11-27T15:03:12.182Z,1.00
2022-11-27T15:05:41.661Z,1.20
2022-11-27T15:08:12.421Z,0.90
2022-11-27T15:10:43.273Z,1.00
2022-11-27T15:13:38.246Z,0.90
2022-11-27T15:16:22.893Z,0.90
2022-11-27T15:19:00.791Z,0.90
2022-11-27T15:21:31.826Z,1.00
2022-11-27T15:24:01.249Z,1.90
2022-11-27T15:26:49.142Z,1.00
2022-11-27T15:29:39.283Z,1.20
2022-11-27T15:32:27.457Z,1.20
2022-11-27T15:34:57.189Z,1.20
2022-11-27T15:37:31.842Z,1.20
2022-11-27T15:40:03.081Z,1.50
2022-11-27T15:42:32.734Z,2.80
2022-11-27T15:45:02.419Z,2.00
2022-11-27T15:47:37.700Z,1.30
2022-11-27T15:50:08.494Z,0.80
2022-11-27T15:52:37.841Z,1.20
2022-11-27T15:55:07.675Z,1.10
2022-11-27T15:57:36.883Z,1.00
2022-11-27T16:00:09.604Z,1.00
2022-11-27T16:02:39.486Z,1.00
2022-11-27T16:05:10.247Z,0.90
2022-11-27T16:07:39.955Z,1.20
2022-11-27T16:10:10.158Z,1.20
2022-11-27T16:12:42.657Z,1.10
2022-11-27T16:15:12.437Z,3.50
2022-11-27T16:17:41.650Z,1.20
2022-11-27T16:20:11.571Z,1.00
2022-11-27T16:22:41.022Z,1.30
2022-11-27T16:25:10.712Z,1.20
2022-11-27T16:27:40.042Z,1.10
2022-11-27T16:30:10.015Z,1.50
2022-11-27T16:32:42.819Z,1.50
2022-11-27T16:35:12.294Z,1.90
2022-11-27T16:37:43.719Z,1.20
2022-11-27T16:40:13.833Z,2.40
2022-11-27T16:42:43.385Z,2.30
2022-11-27T16:45:13.116Z,2.10
2022-11-27T16:47:42.593Z,1.40
2022-11-27T16:50:12.247Z,0.90
2022-11-27T16:52:41.710Z,1.00
2022-11-27T16:55:11.535Z,1.20
2022-11-27T16:57:40.849Z,1.10
2022-11-27T17:00:10.757Z,0.80
2022-11-27T17:02:40.189Z,1.00
2022-11-27T17:05:10.457Z,1.00
2022-11-27T17:07:41.206Z,1.20
2022-11-27T17:10:11.201Z,0.90
2022-11-27T17:12:40.541Z,1.00
2022-11-27T17:15:10.508Z,0.90
2022-11-27T17:17:40.780Z,0.90
2022-11-27T17:20:11.064Z,1.00
2022-11-27T17:22:40.268Z,1.30
2022-11-27T17:25:12.317Z,1.20
2022-11-27T17:27:42.445Z,1.10
2022-11-27T17:30:11.958Z,1.00
2022-11-27T17:32:41.246Z,1.30
2022-11-27T17:35:10.875Z,0.90
2022-11-27T17:37:40.472Z,1.10
2022-11-27T17:40:10.682Z,1.10
2022-11-27T17:42:39.913Z,1.20
2022-11-27T17:45:10.185Z,1.20
2022-11-27T17:47:40.436Z,1.30
2022-11-27T17:50:10.497Z,1.00
2022-11-27T17:52:39.828Z,1.10
2022-11-27T17:55:09.759Z,1.00
2022-11-27T17:57:39.103Z,1.00
2022-11-27T18:00:09.367Z,0.80
2022-11-27T18:02:38.543Z,1.00
2022-11-27T18:05:08.416Z,0.70
2022-11-27T18:07:37.759Z,1.00
2022-11-27T18:10:08.177Z,1.00
2022-11-27T18:12:37.489Z,1.00
2022-11-27T18:15:07.295Z,0.70
2022-11-27T18:17:36.858Z,1.00
2022-11-27T18:20:07.903Z,0.80
2022-11-27T18:22:37.267Z,0.70
2022-11-27T18:25:07.113Z,0.80
2022-11-27T18:27:36.319Z,0.90
2022-11-27T18:30:07.175Z,0.70
2022-11-27T18:32:39.249Z,1.00
2022-11-27T18:35:09.131Z,1.10
2022-11-27T18:37:39.740Z,1.00
2022-11-27T18:40:10.442Z,0.80
2022-11-27T18:42:39.725Z,0.80
2022-11-27T18:45:31.193Z,1.00
2022-11-27T18:48:00.790Z,0.90
2022-11-27T18:50:30.155Z,0.80
2022-11-27T18:52:59.435Z,0.90
2022-11-27T18:55:28.709Z,0.90
2022-11-27T18:57:58.110Z,0.90
2022-11-27T19:00:27.277Z,1.10
2022-11-27T19:02:57.179Z,0.90
2022-11-27T19:05:26.764Z,1.10
2022-11-27T19:07:56.215Z,0.90
2022-11-27T19:10:25.742Z,0.90
2022-11-27T19:12:55.026Z,0.80
2022-11-27T19:15:24.347Z,0.90
2022-11-27T19:17:53.762Z,0.90
2022-11-27T19:20:22.959Z,0.70
2022-11-27T19:22:52.264Z,0.90
2022-11-27T19:25:21.523Z,1.00
2022-11-27T19:27:50.759Z,0.80
2022-11-27T19:30:20.170Z,0.70
2022-11-27T19:32:50.261Z,0.80
2022-11-27T19:35:23.211Z,1.00
2022-11-27T19:37:52.870Z,1.10
2022-11-27T19:40:22.130Z,0.80
2022-11-27T19:42:56.776Z,0.90
2022-11-27T19:45:30.452Z,0.90
2022-11-27T19:48:00.806Z,0.90
2022-11-27T19:50:30.190Z,1.10
2022-11-27T19:53:00.692Z,1.00
2022-11-27T19:55:29.784Z,0.90
2022-11-27T19:57:59.615Z,0.70
2022-11-27T20:00:29.083Z,1.00
2022-11-27T20:02:58.179Z,1.10
2022-11-27T20:05:27.151Z,0.80
2022-11-27T20:07:56.444Z,0.90
2022-11-27T20:10:25.479Z,0.90
2022-11-27T20:12:54.514Z,0.90
2022-11-27T20:15:23.538Z,1.10
2022-11-27T20:17:52.589Z,0.90
2022-11-27T20:20:22.708Z,0.90
2022-11-27T20:22:52.330Z,0.80
2022-11-27T20:25:21.485Z,0.90
2022-11-27T20:27:51.602Z,0.90
2022-11-27T20:30:20.939Z,0.90
2022-11-27T20:32:50.129Z,0.90
2022-11-27T20:35:19.300Z,0.80
2022-11-27T20:37:48.475Z,0.80
2022-11-27T20:40:17.889Z,0.90
2022-11-27T20:42:47.532Z,0.90
2022-11-27T20:45:20.362Z,1.10
2022-11-27T20:47:54.238Z,0.80
2022-11-27T20:50:23.353Z,0.90
2022-11-27T20:52:52.259Z,0.80
2022-11-27T20:55:21.852Z,0.70
2022-11-27T20:57:54.574Z,0.80
2022-11-27T21:00:24.794Z,1.20
2022-11-27T21:02:54.028Z,1.00
2022-11-27T21:05:23.385Z,1.30
2022-11-27T21:07:52.728Z,1.10
2022-11-27T21:10:24.440Z,1.10
2022-11-27T21:12:53.548Z,1.10
2022-11-27T21:15:23.638Z,1.20
2022-11-27T21:17:52.718Z,1.20
2022-11-27T21:20:22.020Z,1.00
2022-11-27T21:22:51.161Z,1.10
2022-11-27T21:25:25.171Z,1.00
2022-11-27T21:27:57.149Z,1.00
2022-11-27T21:30:26.865Z,1.30
2022-11-27T21:32:56.009Z,1.20
2022-11-27T21:35:31.229Z,1.30
2022-11-27T21:38:01.050Z,1.30
2022-11-27T21:40:30.123Z,0.90
2022-11-27T21:42:59.023Z,0.90
2022-11-27T21:45:28.152Z,0.90
2022-11-27T21:47:57.198Z,1.00
2022-11-27T21:50:26.259Z,1.00
2022-11-27T21:52:55.351Z,0.90
2022-11-27T21:55:24.409Z,1.00
2022-11-27T21:57:53.439Z,1.00
2022-11-27T22:00:23.092Z,1.00
2022-11-27T22:02:52.195Z,1.10
2022-11-27T22:05:21.383Z,1.20
2022-11-27T22:07:50.369Z,1.00
2022-11-27T22:10:19.726Z,1.00
2022-11-27T22:12:48.677Z,1.20
2022-11-27T22:15:18.088Z,0.80
2022-11-27T22:17:47.198Z,1.00
2022-11-27T22:20:17.384Z,1.00
2022-11-27T22:22:46.640Z,1.00
2022-11-27T22:25:15.882Z,1.50
2022-11-27T22:27:44.968Z,1.10
2022-11-27T22:30:14.317Z,1.20
2022-11-27T22:32:43.286Z,1.00
2022-11-27T22:35:12.256Z,1.20
2022-11-27T22:37:41.386Z,1.10
2022-11-27T22:40:10.928Z,1.00
2022-11-27T22:42:40.083Z,1.00
2022-11-27T22:45:10.079Z,1.10
2022-11-27T22:47:39.121Z,1.10
2022-11-27T22:50:09.093Z,1.00
2022-11-27T22:52:38.013Z,1.10
2022-11-27T22:55:07.632Z,0.80
2022-11-27T22:57:36.907Z,1.00
2022-11-27T23:00:09.362Z,0.80
2022-11-27T23:02:41.431Z,1.00
2022-11-27T23:05:11.340Z,1.00
2022-11-27T23:07:40.334Z,1.00
2022-11-27T23:10:10.531Z,1.20
2022-11-27T23:12:39.606Z,1.50
2022-11-27T23:15:09.005Z,1.10
2022-11-27T23:17:38.091Z,0.70
2022-11-27T23:20:08.518Z,1.10
2022-11-27T23:22:38.045Z,0.80
2022-11-27T23:25:07.479Z,0.80
2022-11-27T23:27:36.630Z,0.80
2022-11-27T23:30:06.462Z,0.80
2022-11-27T23:32:36.155Z,1.00
2022-11-27T23:35:05.394Z,1.00
2022-11-27T23:37:34.518Z,1.30
2022-11-27T23:40:03.514Z,1.10
2022-11-27T23:42:32.567Z,1.10
2022-11-27T23:45:01.545Z,1.20
2022-11-27T23:47:31.493Z,1.10
2022-11-27T23:50:01.866Z,1.20
2022-11-27T23:52:31.062Z,1.30
2022-11-27T23:55:00.285Z,0.80
2022-11-27T23:57:29.792Z,1.30
2022-11-27T23:59:59.546Z,1.20
